sensor_id;sensor_type;location;lat;lon;timestamp;P1;durP1;ratioP1;P2;durP2;ratioP2
15921;SDS011;8060;50.948;3.146;2024-03-25T00:01:09;20.13;;;11.53;;
15921;SDS011;8060;50.948;3.146;2024-03-25T00:03:36;24.10;;;11.83;;
15921;SDS011;8060;50.948;3.146;2024-03-25T00:06:02;21.17;;;12.47;;
15921;SDS011;8060;50.948;3.146;2024-03-25T00:08:29;21.37;;;12.57;;
15921;SDS011;8060;50.948;3.146;2024-03-25T00:10:57;23.53;;;12.00;;
15921;SDS011;8060;50.948;3.146;2024-03-25T00:13:24;23.77;;;12.20;;
15921;SDS011;8060;50.948;3.146;2024-03-25T00:15:50;20.53;;;11.57;;
15921;SDS011;8060;50.948;3.146;2024-03-25T00:18:17;20.23;;;11.27;;
15921;SDS011;8060;50.948;3.146;2024-03-25T00:20:43;21.33;;;12.20;;
15921;SDS011;8060;50.948;3.146;2024-03-25T00:23:10;18.63;;;10.70;;
15921;SDS011;8060;50.948;3.146;2024-03-25T00:25:37;22.40;;;11.10;;
15921;SDS011;8060;50.948;3.146;2024-03-25T00:28:05;21.30;;;11.23;;
15921;SDS011;8060;50.948;3.146;2024-03-25T00:30:31;19.67;;;10.57;;
15921;SDS011;8060;50.948;3.146;2024-03-25T00:32:59;22.60;;;10.87;;
15921;SDS011;8060;50.948;3.146;2024-03-25T00:35:25;21.13;;;11.57;;
15921;SDS011;8060;50.948;3.146;2024-03-25T00:37:52;22.07;;;11.07;;
15921;SDS011;8060;50.948;3.146;2024-03-25T00:40:19;23.53;;;10.53;;
15921;SDS011;8060;50.948;3.146;2024-03-25T00:42:46;19.43;;;10.00;;
15921;SDS011;8060;50.948;3.146;2024-03-25T00:45:14;17.43;;;9.97;;
15921;SDS011;8060;50.948;3.146;2024-03-25T00:47:41;21.63;;;9.77;;
15921;SDS011;8060;50.948;3.146;2024-03-25T00:50:07;20.00;;;9.70;;
15921;SDS011;8060;50.948;3.146;2024-03-25T00:52:35;23.43;;;9.77;;
15921;SDS011;8060;50.948;3.146;2024-03-25T00:55:01;21.77;;;9.67;;
15921;SDS011;8060;50.948;3.146;2024-03-25T00:57:29;24.70;;;8.90;;
15921;SDS011;8060;50.948;3.146;2024-03-25T00:59:55;18.90;;;8.17;;
15921;SDS011;8060;50.948;3.146;2024-03-25T01:02:23;21.47;;;9.73;;
15921;SDS011;8060;50.948;3.146;2024-03-25T01:04:49;20.10;;;9.07;;
15921;SDS011;8060;50.948;3.146;2024-03-25T01:07:17;19.93;;;9.53;;
15921;SDS011;8060;50.948;3.146;2024-03-25T01:09:43;20.00;;;9.67;;
15921;SDS011;8060;50.948;3.146;2024-03-25T01:12:10;25.27;;;9.43;;
15921;SDS011;8060;50.948;3.146;2024-03-25T01:14:36;22.43;;;8.93;;
15921;SDS011;8060;50.948;3.146;2024-03-25T01:17:03;22.37;;;9.00;;
15921;SDS011;8060;50.948;3.146;2024-03-25T01:19:30;20.10;;;8.63;;
15921;SDS011;8060;50.948;3.146;2024-03-25T01:21:58;20.50;;;9.00;;
15921;SDS011;8060;50.948;3.146;2024-03-25T01:24:24;26.23;;;8.57;;
15921;SDS011;8060;50.948;3.146;2024-03-25T01:26:51;29.73;;;9.60;;
15921;SDS011;8060;50.948;3.146;2024-03-25T01:29:17;27.70;;;8.60;;
15921;SDS011;8060;50.948;3.146;2024-03-25T01:31:44;24.87;;;8.97;;
15921;SDS011;8060;50.948;3.146;2024-03-25T01:34:11;23.83;;;8.53;;
15921;SDS011;8060;50.948;3.146;2024-03-25T01:36:39;24.03;;;8.87;;
15921;SDS011;8060;50.948;3.146;2024-03-25T01:39:05;23.30;;;8.87;;
15921;SDS011;8060;50.948;3.146;2024-03-25T01:41:33;23.57;;;8.87;;
15921;SDS011;8060;50.948;3.146;2024-03-25T01:43:59;21.17;;;8.57;;
15921;SDS011;8060;50.948;3.146;2024-03-25T01:46:27;23.93;;;8.40;;
15921;SDS011;8060;50.948;3.146;2024-03-25T01:48:54;25.87;;;8.80;;
15921;SDS011;8060;50.948;3.146;2024-03-25T01:51:23;24.80;;;8.80;;
15921;SDS011;8060;50.948;3.146;2024-03-25T01:53:52;28.77;;;9.07;;
15921;SDS011;8060;50.948;3.146;2024-03-25T01:56:21;22.13;;;8.23;;
15921;SDS011;8060;50.948;3.146;2024-03-25T01:58:49;21.83;;;7.90;;
15921;SDS011;8060;50.948;3.146;2024-03-25T02:01:17;20.70;;;8.20;;
15921;SDS011;8060;50.948;3.146;2024-03-25T02:03:44;20.03;;;8.17;;
15921;SDS011;8060;50.948;3.146;2024-03-25T02:06:12;24.27;;;8.53;;
15921;SDS011;8060;50.948;3.146;2024-03-25T02:08:39;22.57;;;8.50;;
15921;SDS011;8060;50.948;3.146;2024-03-25T02:11:09;26.20;;;9.60;;
15921;SDS011;8060;50.948;3.146;2024-03-25T02:13:36;21.07;;;8.37;;
15921;SDS011;8060;50.948;3.146;2024-03-25T02:16:03;28.63;;;9.43;;
15921;SDS011;8060;50.948;3.146;2024-03-25T02:18:30;28.47;;;8.70;;
15921;SDS011;8060;50.948;3.146;2024-03-25T02:20:57;22.67;;;8.90;;
15921;SDS011;8060;50.948;3.146;2024-03-25T02:23:24;20.03;;;8.13;;
15921;SDS011;8060;50.948;3.146;2024-03-25T02:25:52;27.43;;;8.40;;
15921;SDS011;8060;50.948;3.146;2024-03-25T02:28:19;21.70;;;8.93;;
15921;SDS011;8060;50.948;3.146;2024-03-25T02:30:47;25.30;;;8.80;;
15921;SDS011;8060;50.948;3.146;2024-03-25T02:33:14;25.00;;;8.83;;
15921;SDS011;8060;50.948;3.146;2024-03-25T02:35:40;20.17;;;8.90;;
15921;SDS011;8060;50.948;3.146;2024-03-25T02:38:09;27.53;;;8.70;;
15921;SDS011;8060;50.948;3.146;2024-03-25T02:40:35;28.00;;;9.20;;
15921;SDS011;8060;50.948;3.146;2024-03-25T02:43:04;22.43;;;8.77;;
15921;SDS011;8060;50.948;3.146;2024-03-25T02:45:32;25.10;;;8.53;;
15921;SDS011;8060;50.948;3.146;2024-03-25T02:47:59;20.40;;;8.13;;
15921;SDS011;8060;50.948;3.146;2024-03-25T02:50:26;23.47;;;8.60;;
15921;SDS011;8060;50.948;3.146;2024-03-25T02:52:53;26.20;;;9.27;;
15921;SDS011;8060;50.948;3.146;2024-03-25T02:55:19;27.23;;;8.63;;
15921;SDS011;8060;50.948;3.146;2024-03-25T02:57:46;27.60;;;9.70;;
15921;SDS011;8060;50.948;3.146;2024-03-25T03:00:14;23.80;;;8.53;;
15921;SDS011;8060;50.948;3.146;2024-03-25T03:02:41;22.37;;;8.27;;
15921;SDS011;8060;50.948;3.146;2024-03-25T03:05:07;24.97;;;8.50;;
15921;SDS011;8060;50.948;3.146;2024-03-25T03:07:34;29.43;;;10.17;;
15921;SDS011;8060;50.948;3.146;2024-03-25T03:10:00;26.63;;;9.60;;
15921;SDS011;8060;50.948;3.146;2024-03-25T03:12:27;30.07;;;10.33;;
15921;SDS011;8060;50.948;3.146;2024-03-25T03:14:54;22.67;;;8.73;;
15921;SDS011;8060;50.948;3.146;2024-03-25T03:17:22;29.57;;;9.57;;
15921;SDS011;8060;50.948;3.146;2024-03-25T03:19:48;30.90;;;9.33;;
15921;SDS011;8060;50.948;3.146;2024-03-25T03:22:15;21.70;;;9.17;;
15921;SDS011;8060;50.948;3.146;2024-03-25T03:24:41;30.73;;;9.63;;
15921;SDS011;8060;50.948;3.146;2024-03-25T03:27:09;31.97;;;10.77;;
15921;SDS011;8060;50.948;3.146;2024-03-25T03:29:35;24.70;;;9.27;;
15921;SDS011;8060;50.948;3.146;2024-03-25T03:32:02;26.13;;;9.23;;
15921;SDS011;8060;50.948;3.146;2024-03-25T03:34:30;29.03;;;9.80;;
15921;SDS011;8060;50.948;3.146;2024-03-25T03:36:57;27.47;;;9.70;;
15921;SDS011;8060;50.948;3.146;2024-03-25T03:39:23;21.70;;;9.57;;
15921;SDS011;8060;50.948;3.146;2024-03-25T03:41:50;27.77;;;9.90;;
15921;SDS011;8060;50.948;3.146;2024-03-25T03:44:16;23.63;;;8.93;;
15921;SDS011;8060;50.948;3.146;2024-03-25T03:46:43;25.07;;;8.80;;
15921;SDS011;8060;50.948;3.146;2024-03-25T03:49:09;26.30;;;8.90;;
15921;SDS011;8060;50.948;3.146;2024-03-25T03:51:38;25.87;;;8.93;;
15921;SDS011;8060;50.948;3.146;2024-03-25T03:54:04;22.53;;;9.10;;
15921;SDS011;8060;50.948;3.146;2024-03-25T03:56:31;22.50;;;9.00;;
15921;SDS011;8060;50.948;3.146;2024-03-25T03:58:57;27.30;;;10.33;;
15921;SDS011;8060;50.948;3.146;2024-03-25T04:01:24;31.27;;;8.97;;
15921;SDS011;8060;50.948;3.146;2024-03-25T04:03:50;23.43;;;9.07;;
15921;SDS011;8060;50.948;3.146;2024-03-25T04:06:17;25.47;;;8.67;;
15921;SDS011;8060;50.948;3.146;2024-03-25T04:08:45;26.93;;;8.93;;
15921;SDS011;8060;50.948;3.146;2024-03-25T04:11:12;21.80;;;8.23;;
15921;SDS011;8060;50.948;3.146;2024-03-25T04:13:38;23.80;;;8.93;;
15921;SDS011;8060;50.948;3.146;2024-03-25T04:16:06;27.77;;;9.30;;
15921;SDS011;8060;50.948;3.146;2024-03-25T04:18:32;26.47;;;8.37;;
15921;SDS011;8060;50.948;3.146;2024-03-25T04:21:00;24.20;;;10.13;;
15921;SDS011;8060;50.948;3.146;2024-03-25T04:23:26;26.37;;;9.53;;
15921;SDS011;8060;50.948;3.146;2024-03-25T04:25:55;21.63;;;8.40;;
15921;SDS011;8060;50.948;3.146;2024-03-25T04:28:21;21.40;;;8.47;;
15921;SDS011;8060;50.948;3.146;2024-03-25T04:30:52;23.37;;;8.50;;
15921;SDS011;8060;50.948;3.146;2024-03-25T04:33:18;25.63;;;8.20;;
15921;SDS011;8060;50.948;3.146;2024-03-25T04:35:45;25.20;;;9.33;;
15921;SDS011;8060;50.948;3.146;2024-03-25T04:38:12;33.63;;;14.30;;
15921;SDS011;8060;50.948;3.146;2024-03-25T04:40:41;30.33;;;12.50;;
15921;SDS011;8060;50.948;3.146;2024-03-25T04:43:08;38.00;;;13.80;;
15921;SDS011;8060;50.948;3.146;2024-03-25T04:45:34;22.17;;;9.73;;
15921;SDS011;8060;50.948;3.146;2024-03-25T04:48:00;22.27;;;9.07;;
15921;SDS011;8060;50.948;3.146;2024-03-25T04:50:27;26.87;;;10.83;;
15921;SDS011;8060;50.948;3.146;2024-03-25T04:52:53;21.87;;;9.53;;
15921;SDS011;8060;50.948;3.146;2024-03-25T04:55:19;35.33;;;10.80;;
15921;SDS011;8060;50.948;3.146;2024-03-25T04:57:45;30.37;;;10.40;;
15921;SDS011;8060;50.948;3.146;2024-03-25T05:00:13;30.43;;;10.80;;
15921;SDS011;8060;50.948;3.146;2024-03-25T05:02:40;31.10;;;10.30;;
15921;SDS011;8060;50.948;3.146;2024-03-25T05:05:06;28.17;;;10.67;;
15921;SDS011;8060;50.948;3.146;2024-03-25T05:07:32;23.70;;;9.97;;
15921;SDS011;8060;50.948;3.146;2024-03-25T05:09:59;24.70;;;10.20;;
15921;SDS011;8060;50.948;3.146;2024-03-25T05:12:25;28.70;;;11.33;;
15921;SDS011;8060;50.948;3.146;2024-03-25T05:14:52;27.57;;;11.13;;
15921;SDS011;8060;50.948;3.146;2024-03-25T05:17:19;31.87;;;11.07;;
15921;SDS011;8060;50.948;3.146;2024-03-25T05:19:45;25.23;;;10.10;;
15921;SDS011;8060;50.948;3.146;2024-03-25T05:22:12;28.63;;;10.67;;
15921;SDS011;8060;50.948;3.146;2024-03-25T05:24:38;27.80;;;11.20;;
15921;SDS011;8060;50.948;3.146;2024-03-25T05:27:04;32.07;;;12.13;;
15921;SDS011;8060;50.948;3.146;2024-03-25T05:29:30;29.90;;;11.73;;
15921;SDS011;8060;50.948;3.146;2024-03-25T05:31:57;30.27;;;12.20;;
15921;SDS011;8060;50.948;3.146;2024-03-25T05:34:26;28.90;;;12.53;;
15921;SDS011;8060;50.948;3.146;2024-03-25T05:36:52;29.40;;;12.83;;
15921;SDS011;8060;50.948;3.146;2024-03-25T05:39:19;35.83;;;14.43;;
15921;SDS011;8060;50.948;3.146;2024-03-25T05:41:45;30.63;;;13.17;;
15921;SDS011;8060;50.948;3.146;2024-03-25T05:44:11;27.80;;;13.57;;
15921;SDS011;8060;50.948;3.146;2024-03-25T05:46:38;29.60;;;13.73;;
15921;SDS011;8060;50.948;3.146;2024-03-25T05:49:04;28.70;;;13.57;;
15921;SDS011;8060;50.948;3.146;2024-03-25T05:51:32;25.50;;;13.93;;
15921;SDS011;8060;50.948;3.146;2024-03-25T05:53:59;28.87;;;13.40;;
15921;SDS011;8060;50.948;3.146;2024-03-25T05:56:25;30.47;;;14.60;;
15921;SDS011;8060;50.948;3.146;2024-03-25T05:58:51;26.90;;;14.17;;
15921;SDS011;8060;50.948;3.146;2024-03-25T06:01:17;32.17;;;13.50;;
15921;SDS011;8060;50.948;3.146;2024-03-25T06:03:44;35.30;;;13.90;;
15921;SDS011;8060;50.948;3.146;2024-03-25T06:06:10;25.17;;;13.67;;
15921;SDS011;8060;50.948;3.146;2024-03-25T06:08:37;27.70;;;13.93;;
15921;SDS011;8060;50.948;3.146;2024-03-25T06:11:05;29.60;;;14.20;;
15921;SDS011;8060;50.948;3.146;2024-03-25T06:13:32;24.87;;;13.93;;
15921;SDS011;8060;50.948;3.146;2024-03-25T06:15:58;23.57;;;12.70;;
15921;SDS011;8060;50.948;3.146;2024-03-25T06:18:24;22.30;;;12.53;;
15921;SDS011;8060;50.948;3.146;2024-03-25T06:20:51;28.37;;;11.97;;
15921;SDS011;8060;50.948;3.146;2024-03-25T06:23:23;25.77;;;12.40;;
15921;SDS011;8060;50.948;3.146;2024-03-25T06:25:51;23.60;;;11.70;;
15921;SDS011;8060;50.948;3.146;2024-03-25T06:28:18;20.43;;;11.73;;
15921;SDS011;8060;50.948;3.146;2024-03-25T06:30:45;27.13;;;11.87;;
15921;SDS011;8060;50.948;3.146;2024-03-25T06:33:30;18.67;;;10.50;;
15921;SDS011;8060;50.948;3.146;2024-03-25T06:36:17;25.13;;;11.93;;
15921;SDS011;8060;50.948;3.146;2024-03-25T06:38:43;24.83;;;12.00;;
15921;SDS011;8060;50.948;3.146;2024-03-25T06:41:11;24.47;;;12.03;;
15921;SDS011;8060;50.948;3.146;2024-03-25T06:43:37;25.50;;;12.43;;
15921;SDS011;8060;50.948;3.146;2024-03-25T06:46:04;25.17;;;14.33;;
15921;SDS011;8060;50.948;3.146;2024-03-25T06:48:31;30.03;;;15.83;;
15921;SDS011;8060;50.948;3.146;2024-03-25T06:50:58;29.40;;;14.40;;
15921;SDS011;8060;50.948;3.146;2024-03-25T06:53:25;34.57;;;14.43;;
15921;SDS011;8060;50.948;3.146;2024-03-25T06:55:51;29.13;;;14.70;;
15921;SDS011;8060;50.948;3.146;2024-03-25T06:58:20;27.47;;;14.57;;
15921;SDS011;8060;50.948;3.146;2024-03-25T07:00:47;33.20;;;14.67;;
15921;SDS011;8060;50.948;3.146;2024-03-25T07:03:13;28.87;;;13.47;;
15921;SDS011;8060;50.948;3.146;2024-03-25T07:05:40;34.67;;;14.80;;
15921;SDS011;8060;50.948;3.146;2024-03-25T07:08:06;32.80;;;13.40;;
15921;SDS011;8060;50.948;3.146;2024-03-25T07:10:32;37.57;;;15.07;;
15921;SDS011;8060;50.948;3.146;2024-03-25T07:12:59;35.17;;;14.67;;
15921;SDS011;8060;50.948;3.146;2024-03-25T07:15:26;30.97;;;13.77;;
15921;SDS011;8060;50.948;3.146;2024-03-25T07:17:52;34.50;;;14.63;;
15921;SDS011;8060;50.948;3.146;2024-03-25T07:20:19;33.27;;;14.93;;
15921;SDS011;8060;50.948;3.146;2024-03-25T07:22:45;41.30;;;16.40;;
15921;SDS011;8060;50.948;3.146;2024-03-25T07:25:11;56.27;;;22.03;;
15921;SDS011;8060;50.948;3.146;2024-03-25T07:27:37;43.13;;;20.03;;
15921;SDS011;8060;50.948;3.146;2024-03-25T07:30:04;49.70;;;20.13;;
15921;SDS011;8060;50.948;3.146;2024-03-25T07:32:33;45.90;;;18.00;;
15921;SDS011;8060;50.948;3.146;2024-03-25T07:34:59;46.10;;;16.80;;
15921;SDS011;8060;50.948;3.146;2024-03-25T07:37:26;37.47;;;14.17;;
15921;SDS011;8060;50.948;3.146;2024-03-25T07:39:52;44.47;;;13.67;;
15921;SDS011;8060;50.948;3.146;2024-03-25T07:42:18;35.63;;;12.40;;
15921;SDS011;8060;50.948;3.146;2024-03-25T07:44:44;33.07;;;12.20;;
15921;SDS011;8060;50.948;3.146;2024-03-25T07:47:10;41.83;;;12.03;;
15921;SDS011;8060;50.948;3.146;2024-03-25T07:49:38;36.57;;;11.80;;
15921;SDS011;8060;50.948;3.146;2024-03-25T07:52:04;31.57;;;12.13;;
15921;SDS011;8060;50.948;3.146;2024-03-25T07:54:31;29.83;;;10.63;;
15921;SDS011;8060;50.948;3.146;2024-03-25T07:56:57;32.83;;;10.13;;
15921;SDS011;8060;50.948;3.146;2024-03-25T07:59:24;36.90;;;10.73;;
15921;SDS011;8060;50.948;3.146;2024-03-25T08:01:50;29.40;;;10.87;;
15921;SDS011;8060;50.948;3.146;2024-03-25T08:04:16;35.30;;;11.13;;
15921;SDS011;8060;50.948;3.146;2024-03-25T08:06:44;30.27;;;9.83;;
15921;SDS011;8060;50.948;3.146;2024-03-25T08:09:10;31.50;;;10.13;;
15921;SDS011;8060;50.948;3.146;2024-03-25T08:11:36;22.83;;;10.50;;
15921;SDS011;8060;50.948;3.146;2024-03-25T08:14:02;31.97;;;8.93;;
15921;SDS011;8060;50.948;3.146;2024-03-25T08:16:28;27.90;;;9.53;;
15921;SDS011;8060;50.948;3.146;2024-03-25T08:18:55;24.83;;;10.00;;
15921;SDS011;8060;50.948;3.146;2024-03-25T08:21:21;22.77;;;8.90;;
15921;SDS011;8060;50.948;3.146;2024-03-25T08:23:50;23.10;;;9.50;;
15921;SDS011;8060;50.948;3.146;2024-03-25T08:26:16;30.87;;;10.90;;
15921;SDS011;8060;50.948;3.146;2024-03-25T08:28:42;26.73;;;10.00;;
15921;SDS011;8060;50.948;3.146;2024-03-25T08:31:09;28.57;;;10.00;;
15921;SDS011;8060;50.948;3.146;2024-03-25T08:33:35;27.80;;;10.67;;
15921;SDS011;8060;50.948;3.146;2024-03-25T08:36:02;28.87;;;10.43;;
15921;SDS011;8060;50.948;3.146;2024-03-25T08:38:28;30.53;;;11.03;;
15921;SDS011;8060;50.948;3.146;2024-03-25T08:40:56;33.97;;;10.77;;
15921;SDS011;8060;50.948;3.146;2024-03-25T08:43:22;41.13;;;12.07;;
15921;SDS011;8060;50.948;3.146;2024-03-25T08:45:48;33.17;;;10.87;;
15921;SDS011;8060;50.948;3.146;2024-03-25T08:48:14;30.10;;;11.90;;
15921;SDS011;8060;50.948;3.146;2024-03-25T08:50:40;29.33;;;12.27;;
15921;SDS011;8060;50.948;3.146;2024-03-25T08:53:06;31.03;;;12.27;;
15921;SDS011;8060;50.948;3.146;2024-03-25T08:55:33;25.33;;;10.87;;
15921;SDS011;8060;50.948;3.146;2024-03-25T08:58:00;27.13;;;9.50;;
15921;SDS011;8060;50.948;3.146;2024-03-25T09:00:26;22.77;;;9.77;;
15921;SDS011;8060;50.948;3.146;2024-03-25T09:02:53;26.23;;;10.50;;
15921;SDS011;8060;50.948;3.146;2024-03-25T09:05:19;25.10;;;9.23;;
15921;SDS011;8060;50.948;3.146;2024-03-25T09:07:46;22.37;;;9.73;;
15921;SDS011;8060;50.948;3.146;2024-03-25T09:10:15;28.63;;;12.20;;
15921;SDS011;8060;50.948;3.146;2024-03-25T09:13:01;31.73;;;16.10;;
15921;SDS011;8060;50.948;3.146;2024-03-25T09:15:27;32.57;;;13.90;;
15921;SDS011;8060;50.948;3.146;2024-03-25T09:17:53;29.17;;;12.97;;
15921;SDS011;8060;50.948;3.146;2024-03-25T09:20:20;28.63;;;13.20;;
15921;SDS011;8060;50.948;3.146;2024-03-25T09:22:46;32.53;;;12.63;;
15921;SDS011;8060;50.948;3.146;2024-03-25T09:25:13;26.97;;;11.20;;
15921;SDS011;8060;50.948;3.146;2024-03-25T09:27:39;23.83;;;11.00;;
15921;SDS011;8060;50.948;3.146;2024-03-25T09:30:07;21.53;;;10.00;;
15921;SDS011;8060;50.948;3.146;2024-03-25T09:32:34;22.43;;;10.13;;
15921;SDS011;8060;50.948;3.146;2024-03-25T09:35:00;23.00;;;9.67;;
15921;SDS011;8060;50.948;3.146;2024-03-25T09:37:26;27.03;;;11.70;;
15921;SDS011;8060;50.948;3.146;2024-03-25T09:39:52;22.60;;;10.47;;
15921;SDS011;8060;50.948;3.146;2024-03-25T09:42:21;22.57;;;10.60;;
15921;SDS011;8060;50.948;3.146;2024-03-25T09:44:51;22.73;;;9.63;;
15921;SDS011;8060;50.948;3.146;2024-03-25T09:47:20;20.97;;;10.03;;
15921;SDS011;8060;50.948;3.146;2024-03-25T09:49:47;22.43;;;9.67;;
15921;SDS011;8060;50.948;3.146;2024-03-25T09:52:14;21.70;;;10.20;;
15921;SDS011;8060;50.948;3.146;2024-03-25T09:54:40;23.43;;;9.90;;
15921;SDS011;8060;50.948;3.146;2024-03-25T09:57:06;25.33;;;10.67;;
15921;SDS011;8060;50.948;3.146;2024-03-25T09:59:33;26.03;;;11.07;;
15921;SDS011;8060;50.948;3.146;2024-03-25T10:01:59;23.23;;;10.97;;
15921;SDS011;8060;50.948;3.146;2024-03-25T10:04:28;24.37;;;11.30;;
15921;SDS011;8060;50.948;3.146;2024-03-25T10:06:54;35.57;;;10.43;;
15921;SDS011;8060;50.948;3.146;2024-03-25T10:09:21;23.13;;;10.03;;
15921;SDS011;8060;50.948;3.146;2024-03-25T10:11:47;22.70;;;9.97;;
15921;SDS011;8060;50.948;3.146;2024-03-25T10:14:14;20.77;;;9.07;;
15921;SDS011;8060;50.948;3.146;2024-03-25T10:16:41;21.73;;;8.50;;
15921;SDS011;8060;50.948;3.146;2024-03-25T10:19:07;20.03;;;8.00;;
15921;SDS011;8060;50.948;3.146;2024-03-25T10:21:35;20.30;;;8.67;;
15921;SDS011;8060;50.948;3.146;2024-03-25T10:24:03;25.07;;;10.10;;
15921;SDS011;8060;50.948;3.146;2024-03-25T10:26:31;26.03;;;10.93;;
15921;SDS011;8060;50.948;3.146;2024-03-25T10:28:58;24.80;;;11.27;;
15921;SDS011;8060;50.948;3.146;2024-03-25T10:31:25;22.37;;;8.90;;
15921;SDS011;8060;50.948;3.146;2024-03-25T10:33:52;15.43;;;7.20;;
15921;SDS011;8060;50.948;3.146;2024-03-25T10:36:19;22.50;;;7.50;;
15921;SDS011;8060;50.948;3.146;2024-03-25T10:38:48;25.17;;;7.50;;
15921;SDS011;8060;50.948;3.146;2024-03-25T10:41:16;22.83;;;7.50;;
15921;SDS011;8060;50.948;3.146;2024-03-25T10:43:45;17.67;;;7.80;;
15921;SDS011;8060;50.948;3.146;2024-03-25T10:46:13;20.73;;;7.33;;
15921;SDS011;8060;50.948;3.146;2024-03-25T10:48:43;19.17;;;7.40;;
15921;SDS011;8060;50.948;3.146;2024-03-25T10:51:14;18.53;;;6.53;;
15921;SDS011;8060;50.948;3.146;2024-03-25T10:53:40;19.23;;;6.23;;
15921;SDS011;8060;50.948;3.146;2024-03-25T10:56:09;21.17;;;5.90;;
15921;SDS011;8060;50.948;3.146;2024-03-25T10:58:36;15.97;;;6.00;;
15921;SDS011;8060;50.948;3.146;2024-03-25T11:01:04;12.87;;;5.77;;
15921;SDS011;8060;50.948;3.146;2024-03-25T11:03:30;18.57;;;6.27;;
15921;SDS011;8060;50.948;3.146;2024-03-25T11:05:57;21.47;;;6.27;;
15921;SDS011;8060;50.948;3.146;2024-03-25T11:08:30;10.80;;;5.53;;
15921;SDS011;8060;50.948;3.146;2024-03-25T11:10:57;11.93;;;4.77;;
15921;SDS011;8060;50.948;3.146;2024-03-25T11:13:26;13.97;;;5.10;;
15921;SDS011;8060;50.948;3.146;2024-03-25T11:15:53;15.57;;;5.53;;
15921;SDS011;8060;50.948;3.146;2024-03-25T11:18:22;13.80;;;5.60;;
15921;SDS011;8060;50.948;3.146;2024-03-25T11:20:59;11.60;;;5.07;;
15921;SDS011;8060;50.948;3.146;2024-03-25T11:23:26;14.53;;;4.10;;
15921;SDS011;8060;50.948;3.146;2024-03-25T11:25:55;14.13;;;4.97;;
15921;SDS011;8060;50.948;3.146;2024-03-25T11:28:28;14.87;;;5.17;;
15921;SDS011;8060;50.948;3.146;2024-03-25T11:30:55;19.77;;;5.23;;
15921;SDS011;8060;50.948;3.146;2024-03-25T11:33:21;14.37;;;4.30;;
15921;SDS011;8060;50.948;3.146;2024-03-25T11:35:48;12.07;;;4.10;;
15921;SDS011;8060;50.948;3.146;2024-03-25T11:38:14;8.50;;;3.80;;
15921;SDS011;8060;50.948;3.146;2024-03-25T11:40:41;12.63;;;4.00;;
15921;SDS011;8060;50.948;3.146;2024-03-25T11:43:10;9.37;;;3.80;;
15921;SDS011;8060;50.948;3.146;2024-03-25T11:45:46;12.70;;;3.40;;
15921;SDS011;8060;50.948;3.146;2024-03-25T11:48:13;10.50;;;3.60;;
15921;SDS011;8060;50.948;3.146;2024-03-25T11:50:40;9.40;;;3.60;;
15921;SDS011;8060;50.948;3.146;2024-03-25T11:53:06;17.30;;;3.60;;
15921;SDS011;8060;50.948;3.146;2024-03-25T11:55:33;13.07;;;3.67;;
15921;SDS011;8060;50.948;3.146;2024-03-25T11:57:59;8.10;;;3.23;;
15921;SDS011;8060;50.948;3.146;2024-03-25T12:00:26;6.57;;;2.60;;
15921;SDS011;8060;50.948;3.146;2024-03-25T12:02:53;6.23;;;2.67;;
15921;SDS011;8060;50.948;3.146;2024-03-25T12:05:20;9.73;;;2.73;;
15921;SDS011;8060;50.948;3.146;2024-03-25T12:07:46;8.00;;;2.73;;
15921;SDS011;8060;50.948;3.146;2024-03-25T12:10:12;8.10;;;2.63;;
15921;SDS011;8060;50.948;3.146;2024-03-25T12:12:57;10.70;;;2.80;;
15921;SDS011;8060;50.948;3.146;2024-03-25T12:15:23;11.77;;;2.53;;
15921;SDS011;8060;50.948;3.146;2024-03-25T12:17:49;10.57;;;2.47;;
15921;SDS011;8060;50.948;3.146;2024-03-25T12:20:18;8.93;;;3.00;;
15921;SDS011;8060;50.948;3.146;2024-03-25T12:22:45;7.67;;;3.00;;
15921;SDS011;8060;50.948;3.146;2024-03-25T12:25:11;13.83;;;3.57;;
15921;SDS011;8060;50.948;3.146;2024-03-25T12:27:38;18.93;;;3.17;;
15921;SDS011;8060;50.948;3.146;2024-03-25T12:30:05;8.33;;;2.70;;
15921;SDS011;8060;50.948;3.146;2024-03-25T12:32:36;7.87;;;2.63;;
15921;SDS011;8060;50.948;3.146;2024-03-25T12:35:03;10.53;;;2.57;;
15921;SDS011;8060;50.948;3.146;2024-03-25T12:37:35;9.83;;;2.50;;
15921;SDS011;8060;50.948;3.146;2024-03-25T12:40:02;17.50;;;3.03;;
15921;SDS011;8060;50.948;3.146;2024-03-25T12:42:29;8.93;;;2.47;;
15921;SDS011;8060;50.948;3.146;2024-03-25T12:44:55;10.37;;;2.47;;
15921;SDS011;8060;50.948;3.146;2024-03-25T12:47:22;4.70;;;2.00;;
15921;SDS011;8060;50.948;3.146;2024-03-25T12:49:48;9.53;;;2.20;;
15921;SDS011;8060;50.948;3.146;2024-03-25T12:52:14;9.27;;;2.50;;
15921;SDS011;8060;50.948;3.146;2024-03-25T12:54:42;6.20;;;2.20;;
15921;SDS011;8060;50.948;3.146;2024-03-25T12:57:08;9.17;;;2.13;;
15921;SDS011;8060;50.948;3.146;2024-03-25T12:59:35;7.57;;;2.80;;
15921;SDS011;8060;50.948;3.146;2024-03-25T13:02:01;6.13;;;2.30;;
15921;SDS011;8060;50.948;3.146;2024-03-25T13:04:28;10.73;;;2.73;;
15921;SDS011;8060;50.948;3.146;2024-03-25T13:06:54;10.27;;;2.97;;
15921;SDS011;8060;50.948;3.146;2024-03-25T13:09:20;10.17;;;3.20;;
15921;SDS011;8060;50.948;3.146;2024-03-25T13:11:48;10.80;;;2.93;;
15921;SDS011;8060;50.948;3.146;2024-03-25T13:14:14;13.30;;;2.77;;
15921;SDS011;8060;50.948;3.146;2024-03-25T13:16:41;10.27;;;2.80;;
15921;SDS011;8060;50.948;3.146;2024-03-25T13:19:07;9.47;;;3.47;;
15921;SDS011;8060;50.948;3.146;2024-03-25T13:21:33;10.00;;;3.30;;
15921;SDS011;8060;50.948;3.146;2024-03-25T13:23:59;23.53;;;4.00;;
15921;SDS011;8060;50.948;3.146;2024-03-25T13:26:26;12.13;;;3.40;;
15921;SDS011;8060;50.948;3.146;2024-03-25T13:28:54;10.13;;;3.10;;
15921;SDS011;8060;50.948;3.146;2024-03-25T13:31:20;9.07;;;3.17;;
15921;SDS011;8060;50.948;3.146;2024-03-25T13:33:46;11.53;;;3.17;;
15921;SDS011;8060;50.948;3.146;2024-03-25T13:36:12;7.43;;;3.20;;
15921;SDS011;8060;50.948;3.146;2024-03-25T13:38:38;15.40;;;3.63;;
15921;SDS011;8060;50.948;3.146;2024-03-25T13:41:05;13.63;;;3.60;;
15921;SDS011;8060;50.948;3.146;2024-03-25T13:43:31;9.63;;;3.87;;
15921;SDS011;8060;50.948;3.146;2024-03-25T13:45:59;9.83;;;2.97;;
15921;SDS011;8060;50.948;3.146;2024-03-25T13:48:25;8.80;;;2.93;;
15921;SDS011;8060;50.948;3.146;2024-03-25T13:50:53;11.27;;;3.00;;
15921;SDS011;8060;50.948;3.146;2024-03-25T13:53:19;10.20;;;3.20;;
15921;SDS011;8060;50.948;3.146;2024-03-25T13:55:45;9.70;;;2.80;;
15921;SDS011;8060;50.948;3.146;2024-03-25T13:58:12;6.97;;;2.67;;
15921;SDS011;8060;50.948;3.146;2024-03-25T14:00:38;4.90;;;2.20;;
15921;SDS011;8060;50.948;3.146;2024-03-25T14:03:05;7.40;;;2.40;;
15921;SDS011;8060;50.948;3.146;2024-03-25T14:05:32;8.57;;;2.93;;
15921;SDS011;8060;50.948;3.146;2024-03-25T14:07:58;6.77;;;2.60;;
15921;SDS011;8060;50.948;3.146;2024-03-25T14:10:24;8.90;;;2.30;;
15921;SDS011;8060;50.948;3.146;2024-03-25T14:12:51;8.27;;;2.30;;
15921;SDS011;8060;50.948;3.146;2024-03-25T14:15:17;8.27;;;2.17;;
15921;SDS011;8060;50.948;3.146;2024-03-25T14:17:43;8.90;;;1.97;;
15921;SDS011;8060;50.948;3.146;2024-03-25T14:20:11;6.47;;;2.00;;
15921;SDS011;8060;50.948;3.146;2024-03-25T14:22:37;8.30;;;2.60;;
15921;SDS011;8060;50.948;3.146;2024-03-25T14:25:04;8.90;;;2.30;;
15921;SDS011;8060;50.948;3.146;2024-03-25T14:27:30;5.90;;;2.07;;
15921;SDS011;8060;50.948;3.146;2024-03-25T14:29:57;6.70;;;2.20;;
15921;SDS011;8060;50.948;3.146;2024-03-25T14:32:23;5.03;;;2.40;;
15921;SDS011;8060;50.948;3.146;2024-03-25T14:34:49;8.43;;;2.27;;
15921;SDS011;8060;50.948;3.146;2024-03-25T14:37:17;8.37;;;2.40;;
15921;SDS011;8060;50.948;3.146;2024-03-25T14:39:43;7.20;;;2.03;;
15921;SDS011;8060;50.948;3.146;2024-03-25T14:42:09;6.37;;;2.00;;